メインページ
METAR-TAF:

METAR-TAF

空港 :

コロール, Babelthuap Island, パラオ

ロマン・トメトゥチェル国際空港

緯度: 07-22N, 経度: 134-32E, 海抜: 54m

現時点の気象観測

当レポートは46分前の22:50(UTC)に作成
西/北西の風 4kt
気温 27°C
湿度 84%
気圧 1011 hPa
視程: 24.1km
高度1500ftの千切れ雲あり
高度11000ftの千切れ雲あり
高度29000ftの曇り

METAR: PTRO 232250Z 30004KT 15SM BKN015 BKN110 OVC290 27/24 A2984 RMK CB DSNT ALQDS

時間: 08:36 (23:36 UTC)

予報

当レポートは5時間58分前の17:38(UTC)に作成
予報は23日の 18時(UTC)から 24日の 18時(UTC)まで有効
変向風 6kt
視程: 10km
高度1500ftの千切れ雲あり
高度28000ftの曇り
近辺でにわか雨
23日の 2300時(UTC)から
変向風 6kt
視程: 10km
高度1600ftの雲は散在している
高度12000ftの千切れ雲あり
近辺でにわか雨

TAF: PTRO 231738Z 2318/2418 VRB06KT P6SM VCSH BKN015 OVC280 FM232300 VRB06KT P6SM VCSH SCT016 BKN120

4,000以上の空港の気象観測と天気予報(METAR報とTAF報)

利用可能な観測所は地図上に黄色い丸と赤い丸で示す。

丸の上にカーソルを重ねると観測所名を参照できる。

次にクリックすると気象観測と天気予報を参照できる。

マップの切り替え:黒色「×」印の緑ボタンをクリックして拡大、「-」印の緑ボタンをクリックして縮小、緑色の三角印をクリックして隣りの地図に切り替え


METAR-TAF: